Time;durP1;ratioP1;P1;durP2;ratioP2;P2;SDS_P1;SDS_P2;PMS_P1;PMS_P2;Temp;Humidity;BMP_temperature;BMP_pressure;BME280_temperature;BME280_humidity;BME280_pressure;Samples;Min_cycle;Max_cycle;Signal;HPM_P1;HPM_P2
2022/01/19 00:00:59;;;;;;;6.93;3.07;;;;;;;-0.23;60.74;100688.53;5013682;28;20170;-84
2022/01/19 00:03:25;;;;;;;10.47;3.73;;;;;;;-1.43;61.28;100446.16;5013448;28;20538;-84
2022/01/19 00:05:50;;;;;;;15.97;5.40;;;;;;;-1.48;61.39;100449.72;5013470;28;20603;-84
2022/01/19 00:08:20;;;;;;;9.10;4.07;;;;;;;-0.41;61.66;100621.91;4996031;28;20222;-84
2022/01/19 00:10:47;;;;;;;13.98;4.40;;;;;;;0.34;61.51;100798.31;5023835;28;20156;-83
2022/01/19 00:13:13;;;;;;;10.82;5.68;;;;;;;-2.11;61.48;100362.69;5024234;28;20545;-83
2022/01/19 00:15:38;;;;;;;9.83;5.10;;;;;;;0.02;61.88;100721.84;5013022;28;20329;-84
2022/01/19 00:18:05;;;;;;;9.43;4.73;;;;;;;-0.67;62.50;100602.63;5013081;28;20214;-84
2022/01/19 00:20:32;;;;;;;9.10;4.53;;;;;;;0.42;61.74;100771.00;4995901;28;20177;-83
2022/01/19 00:22:58;;;;;;;8.40;3.80;;;;;;;0.49;61.45;100775.03;5013393;28;20167;-83
2022/01/19 00:25:24;;;;;;;7.80;3.35;;;;;;;-0.48;61.76;100604.56;5013533;28;20163;-83
2022/01/19 00:27:50;;;;;;;11.53;3.90;;;;;;;-1.49;61.88;100460.38;5013698;28;20173;-83
2022/01/19 00:30:16;;;;;;;8.00;3.70;;;;;;;0.45;61.52;100761.38;5013522;28;20159;-84
2022/01/19 00:32:42;;;;;;;9.63;4.07;;;;;;;0.50;61.38;100770.19;4995885;28;20180;-83
2022/01/19 00:35:10;;;;;;;9.27;3.67;;;;;;;0.52;61.68;100781.19;5012874;28;20154;-83
2022/01/19 00:37:37;;;;;;;7.10;3.78;;;;;;;0.46;62.05;100770.63;5012572;28;20195;-84
2022/01/19 00:40:04;;;;;;;8.32;3.90;;;;;;;-0.46;63.29;100661.19;5012711;28;20223;-83
2022/01/19 00:42:29;;;;;;;8.65;2.75;;;;;;;-2.01;63.58;100396.84;5012671;28;20179;-83
2022/01/19 00:44:54;;;;;;;9.27;4.30;;;;;;;-1.63;64.25;100453.06;5012650;28;20171;-82
2022/01/19 00:47:20;;;;;;;9.37;3.17;;;;;;;-1.79;65.58;100470.38;5012810;28;20166;-83
2022/01/19 00:49:45;;;;;;;7.77;3.90;;;;;;;-2.39;65.23;100376.19;5012494;28;20159;-84
2022/01/19 00:52:12;;;;;;;11.17;5.10;;;;;;;-2.15;64.98;100405.25;5011428;28;20217;-84
2022/01/19 00:54:39;;;;;;;10.45;4.60;;;;;;;-0.11;65.43;100799.31;5012436;28;20198;-84
2022/01/19 00:57:05;;;;;;;13.45;4.75;;;;;;;-0.36;66.46;100757.59;5012428;28;20162;-83
2022/01/19 00:59:30;;;;;;;8.35;3.90;;;;;;;-2.85;66.65;100321.44;5012412;28;20198;-83
2022/01/19 01:01:56;;;;;;;13.43;5.33;;;;;;;-2.35;67.24;100422.03;5012335;28;20265;-84
2022/01/19 01:04:21;;;;;;;12.23;5.03;;;;;;;-1.69;67.43;100547.59;5012747;28;20159;-84
2022/01/19 01:06:47;;;;;;;7.87;3.83;;;;;;;-1.36;66.73;100605.00;5012313;28;20628;-83
2022/01/19 01:09:12;;;;;;;10.30;3.10;;;;;;;-0.21;66.62;100816.44;5012473;28;20244;-82
2022/01/19 01:11:47;;;;;;;9.50;4.63;;;;;;;-0.18;66.32;100791.91;5012426;28;20187;-83
2022/01/19 01:16:51;;;;;;;12.05;4.90;;;;;;;-1.91;65.36;100488.91;5012418;28;20167;-83
2022/01/19 01:19:16;;;;;;;9.27;4.22;;;;;;;-3.13;64.07;100271.34;5012436;28;20198;-83
2022/01/19 01:21:42;;;;;;;9.33;4.37;;;;;;;-1.91;63.26;100489.78;4994735;28;20171;-83
2022/01/19 01:24:07;;;;;;;8.20;3.93;;;;;;;-0.77;63.12;100744.03;4994466;28;20558;-83
2022/01/19 01:26:32;;;;;;;8.10;3.53;;;;;;;-0.11;62.32;100821.72;5011861;28;20641;-83
2022/01/19 01:28:58;;;;;;;5.67;3.37;;;;;;;-1.11;63.28;100678.97;5012215;28;20159;-83
2022/01/19 01:31:23;;;;;;;7.30;3.73;;;;;;;-3.77;62.94;100223.78;5013739;28;20163;-83
2022/01/19 01:33:49;;;;;;;5.90;2.97;;;;;;;-1.88;62.88;100528.94;5015091;28;20242;-82
2022/01/19 01:36:15;;;;;;;8.97;4.10;;;;;;;-1.99;62.77;100512.88;5017533;28;20174;-83
2022/01/19 01:38:41;;;;;;;9.15;3.22;;;;;;;-0.12;62.60;100812.47;5012095;28;20274;-83
2022/01/19 01:41:09;;;;;;;8.60;4.30;;;;;;;-2.22;62.54;100499.53;4994247;28;20630;-83
2022/01/19 01:43:34;;;;;;;10.45;4.80;;;;;;;-0.19;62.85;100817.50;4994311;28;20163;-83
2022/01/19 01:46:06;;;;;;;5.63;3.43;;;;;;;-2.92;63.23;100349.63;5011784;28;20173;-82
2022/01/19 01:48:35;;;;;;;12.20;5.30;;;;;;;-1.01;63.63;100698.25;5011795;28;20181;-83
2022/01/19 01:53:44;;;;;;;9.48;3.90;;;;;;;-0.46;64.45;100799.59;5011937;28;20262;-83
2022/01/19 01:56:13;;;;;;;8.10;3.83;;;;;;;-0.48;65.11;100793.56;5012160;28;20198;-83
2022/01/19 01:58:44;;;;;;;6.25;3.65;;;;;;;-1.24;65.56;100651.91;5011961;28;20194;-82
2022/01/19 02:01:10;;;;;;;8.32;3.83;;;;;;;-0.45;65.02;100784.84;5011714;28;20608;-84
2022/01/19 02:03:39;;;;;;;8.23;4.22;;;;;;;-0.77;65.98;100731.63;5014623;28;20611;-83
2022/01/19 02:06:28;;;;;;;7.60;4.25;;;;;;;-0.65;66.63;100780.19;4997911;28;20609;-83
2022/01/19 02:09:15;;;;;;;5.97;2.90;;;;;;;-0.67;67.46;100786.63;5015819;28;20155;-83
2022/01/19 02:22:54;;;;;;;7.32;3.65;;;;;;;-1.00;69.18;100687.59;5015418;28;20173;-84
2022/01/19 02:25:26;;;;;;;11.37;4.97;;;;;;;-1.98;68.80;100528.66;5015289;28;20158;-83
2022/01/19 02:41:36;;;;;;;5.47;3.17;;;;;;;-1.10;70.72;100740.38;5016796;28;20299;-83
2022/01/19 02:44:02;;;;;;;10.85;4.13;;;;;;;-1.80;70.33;100619.97;5015617;28;20546;-83
2022/01/19 02:49:17;;;;;;;9.43;3.72;;;;;;;-2.47;69.76;100487.59;4973410;28;20195;-83
2022/01/19 02:51:44;;;;;;;7.63;2.92;;;;;;;-1.13;69.76;100715.22;4974264;28;20180;-83
2022/01/19 02:54:12;;;;;;;6.80;3.20;;;;;;;-1.05;69.26;100713.56;4973859;28;20688;-83
2022/01/19 02:56:39;;;;;;;8.63;4.03;;;;;;;-1.56;68.87;100620.19;4983768;28;20184;-83
2022/01/19 02:59:19;;;;;;;7.32;3.42;;;;;;;-2.43;68.97;100484.78;4985125;28;20183;-84
2022/01/19 03:09:41;;;;;;;8.30;4.78;;;;;;;-1.64;68.27;100605.16;5000676;28;20193;-83
2022/01/19 03:12:08;;;;;;;11.18;4.70;;;;;;;-1.11;67.40;100678.97;4993996;28;20191;-84
2022/01/19 03:14:33;;;;;;;10.93;5.00;;;;;;;-0.87;67.68;100735.44;4992030;28;20227;-83
2022/01/19 03:16:59;;;;;;;11.10;5.57;;;;;;;-0.85;68.03;100739.84;4978569;28;20233;-84
2022/01/19 03:19:26;;;;;;;8.70;4.57;;;;;;;-0.77;68.00;100758.97;5012385;28;20700;-84
2022/01/19 03:21:52;;;;;;;8.07;3.90;;;;;;;-1.40;67.14;100642.63;5012431;28;20182;-84
2022/01/19 03:24:18;;;;;;;9.87;4.27;;;;;;;-1.48;67.08;100598.69;5012027;28;20748;-83
2022/01/19 03:26:44;;;;;;;7.40;3.45;;;;;;;-2.09;66.04;100502.66;5010151;28;20199;-83
2022/01/19 03:29:09;;;;;;;6.27;3.30;;;;;;;-2.43;65.17;100445.09;5014932;28;20225;-84
2022/01/19 03:31:35;;;;;;;6.10;2.77;;;;;;;-0.89;65.06;100673.13;5014680;28;20170;-83
2022/01/19 03:34:01;;;;;;;6.03;2.67;;;;;;;-1.90;64.69;100499.00;5014637;28;20167;-83
2022/01/19 03:36:27;;;;;;;6.57;3.45;;;;;;;-1.35;64.49;100599.31;5016580;28;20314;-83
2022/01/19 03:38:53;;;;;;;10.48;3.80;;;;;;;-3.99;64.28;100159.38;4998654;28;20213;-84
2022/01/19 03:41:18;;;;;;;7.43;3.73;;;;;;;-1.46;64.29;100592.31;5015624;28;20617;-83
2022/01/19 03:43:44;;;;;;;11.27;3.50;;;;;;;-0.82;63.99;100685.50;5015792;28;20175;-82
2022/01/19 03:46:14;;;;;;;11.00;4.97;;;;;;;-0.81;64.38;100721.19;5014588;28;20228;-83
2022/01/19 03:48:52;;;;;;;8.18;3.55;;;;;;;-1.90;64.44;100533.75;5013996;28;20159;-84
2022/01/19 03:51:17;;;;;;;6.95;2.95;;;;;;;-0.46;64.53;100763.16;5013882;28;20163;-83
2022/01/19 03:53:43;;;;;;;9.10;3.87;;;;;;;-3.53;64.72;100240.47;5014135;28;20178;-83
2022/01/19 03:56:08;;;;;;;7.47;3.23;;;;;;;-1.36;64.73;100602.50;5014681;28;20167;-83
2022/01/19 03:58:36;;;;;;;8.10;3.33;;;;;;;-1.91;63.94;100514.59;5014648;28;20202;-84
2022/01/19 04:01:03;;;;;;;12.18;3.47;;;;;;;-0.39;63.83;100769.69;5014150;28;20167;-84
2022/01/19 04:03:52;;;;;;;7.45;3.28;;;;;;;-1.53;64.38;100579.91;5014452;28;20269;-83
2022/01/19 04:06:21;;;;;;;7.72;3.80;;;;;;;-1.13;65.00;100694.44;5013421;28;20194;-83
2022/01/19 04:08:46;;;;;;;7.60;4.43;;;;;;;-0.89;65.24;100777.53;5028188;28;20139;-83
2022/01/19 04:11:14;;;;;;;7.83;4.10;;;;;;;-0.91;65.46;100778.06;5001743;28;20233;-84
2022/01/19 04:16:23;;;;;;;12.63;4.80;;;;;;;-2.24;64.25;100542.22;5014813;28;20237;-82
2022/01/19 04:18:51;;;;;;;15.27;6.63;;;;;;;-1.61;64.43;100646.13;5020867;28;20191;-84
2022/01/19 04:21:17;;;;;;;21.27;7.47;;;;;;;-2.37;63.92;100527.59;5014772;28;20163;-84
2022/01/19 04:23:42;;;;;;;9.27;3.93;;;;;;;-1.81;63.46;100611.66;5015924;28;20175;-82
2022/01/19 04:26:08;;;;;;;6.87;3.73;;;;;;;-1.15;63.11;100728.19;5014634;28;20194;-83
2022/01/19 04:28:34;;;;;;;7.53;3.77;;;;;;;-2.94;62.81;100398.13;5015276;28;20250;-83
2022/01/19 04:31:00;;;;;;;9.98;4.57;;;;;;;-3.15;62.79;100356.97;5014719;28;20205;-83
2022/01/19 04:33:27;;;;;;;4.90;2.60;;;;;;;-2.78;62.96;100409.00;5014378;28;20167;-83
2022/01/19 04:36:05;;;;;;;10.70;4.20;;;;;;;-1.60;61.93;100593.28;5014769;28;20166;-83
2022/01/19 04:44:31;;;;;;;8.98;3.42;;;;;;;-1.88;62.29;100573.59;4992128;28;20182;-83
2022/01/19 05:03:52;;;;;;;9.13;3.30;;;;;;;-0.63;62.52;100827.59;4952333;29;20199;-83
2022/01/19 05:06:15;;;;;;;8.70;3.60;;;;;;;-1.15;63.78;100725.69;4952418;29;20283;-84
2022/01/19 05:13:59;;;;;;;12.23;5.78;;;;;;;-1.24;64.75;100693.28;4952120;29;20248;-84
2022/01/19 05:16:25;;;;;;;16.80;8.43;;;;;;;-1.81;65.40;100581.88;4952150;29;20647;-84
2022/01/19 05:18:51;;;;;;;17.20;8.27;;;;;;;-0.70;65.84;100788.75;4952182;29;20217;-83
2022/01/19 05:21:17;;;;;;;35.70;14.25;;;;;;;-0.54;66.42;100838.56;4952257;29;20287;-83
2022/01/19 05:23:43;;;;;;;54.55;21.27;;;;;;;-1.38;66.91;100704.19;4952317;29;20273;-83
2022/01/19 05:26:09;;;;;;;82.60;25.57;;;;;;;-2.02;67.34;100609.28;4951380;29;20625;-83
2022/01/19 05:28:35;;;;;;;7.40;3.40;;;;;;;-2.84;68.48;100494.13;4991074;28;20627;-83
2022/01/19 05:31:01;;;;;;;6.15;3.22;;;;;;;-1.62;68.97;100713.00;5012534;28;20163;-84
2022/01/19 05:33:26;;;;;;;7.10;3.87;;;;;;;-1.16;68.50;100813.34;4995042;28;20247;-84
2022/01/19 05:35:52;;;;;;;10.40;4.03;;;;;;;-2.52;67.07;100588.72;5012763;28;20249;-83
2022/01/19 05:38:17;;;;;;;14.40;6.00;;;;;;;-2.44;66.34;100583.03;5011966;28;20201;-83
2022/01/19 05:40:42;;;;;;;9.67;4.37;;;;;;;-2.01;64.59;100665.63;5012515;28;20174;-84
2022/01/19 05:43:08;;;;;;;8.40;4.13;;;;;;;-0.68;64.04;100871.84;5012138;28;20163;-84
2022/01/19 05:45:34;;;;;;;11.23;4.77;;;;;;;-2.06;63.79;100649.31;5012492;28;20249;-83
2022/01/19 05:48:00;;;;;;;8.40;4.03;;;;;;;-1.81;63.21;100668.72;4994511;28;20177;-83
2022/01/19 05:50:26;;;;;;;11.60;5.32;;;;;;;-2.14;63.45;100600.47;5013428;28;20174;-84
2022/01/19 05:52:52;;;;;;;19.73;6.90;;;;;;;-1.81;63.12;100651.34;5013497;28;20167;-83
2022/01/19 05:55:17;;;;;;;21.17;8.43;;;;;;;-3.05;62.63;100414.22;4995604;28;20174;-84
2022/01/19 05:57:42;;;;;;;20.63;7.67;;;;;;;-2.13;62.92;100552.63;5012213;28;20201;-84
2022/01/19 06:00:09;;;;;;;18.77;7.17;;;;;;;-1.65;63.54;100653.06;5012742;28;20169;-84
2022/01/19 06:02:36;;;;;;;26.58;10.45;;;;;;;-2.53;63.65;100489.44;4988885;28;20736;-84
2022/01/19 06:05:02;;;;;;;18.30;7.68;;;;;;;-0.25;64.12;100912.25;5029743;28;20277;-83
2022/01/19 06:07:39;;;;;;;15.48;6.90;;;;;;;-2.99;63.57;100446.22;5025134;28;20194;-83
2022/01/19 06:10:09;;;;;;;20.48;8.65;;;;;;;-2.07;64.64;100614.44;5011315;28;20682;-84
2022/01/19 06:12:35;;;;;;;21.42;7.68;;;;;;;-0.11;63.86;100906.34;4993714;28;20220;-83
2022/01/19 06:15:00;;;;;;;18.37;7.83;;;;;;;-0.20;64.42;100915.28;5013341;28;20712;-83
2022/01/19 06:17:26;;;;;;;13.67;6.03;;;;;;;-0.54;64.63;100852.59;5017959;28;20448;-83
2022/01/19 06:19:52;;;;;;;19.23;7.53;;;;;;;-1.34;65.29;100717.78;5030528;28;20174;-83
2022/01/19 06:22:18;;;;;;;18.17;7.43;;;;;;;-0.87;64.67;100805.91;5030683;28;20512;-83
2022/01/19 06:24:44;;;;;;;18.58;5.47;;;;;;;-0.22;64.35;100920.06;5030781;28;20174;-83
2022/01/19 06:27:10;;;;;;;11.77;5.63;;;;;;;-0.29;63.85;100919.25;5030629;28;20182;-83
2022/01/19 06:29:36;;;;;;;11.18;3.92;;;;;;;-0.89;63.60;100822.25;5030730;28;20677;-84
2022/01/19 06:32:02;;;;;;;13.80;6.77;;;;;;;-2.00;63.56;100632.66;5030326;28;20193;-84
2022/01/19 06:34:27;;;;;;;12.53;6.33;;;;;;;-0.37;62.68;100903.47;5012648;28;20186;-83
2022/01/19 06:36:53;;;;;;;20.87;9.20;;;;;;;-2.37;62.08;100542.47;5013059;28;20182;-84
2022/01/19 06:39:19;;;;;;;16.57;7.50;;;;;;;-1.67;61.44;100629.66;5031094;28;20202;-83
2022/01/19 06:41:45;;;;;;;17.67;8.32;;;;;;;-0.87;61.58;100788.50;5030749;28;20719;-83
2022/01/19 06:44:14;;;;;;;18.47;6.57;;;;;;;0.01;60.51;100930.06;5030428;28;20191;-82
2022/01/19 06:46:42;;;;;;;14.05;7.28;;;;;;;0.09;60.18;100936.75;5013614;28;20703;-84
2022/01/19 06:49:07;;;;;;;14.85;6.82;;;;;;;-0.51;59.27;100826.47;5014972;28;20247;-84
2022/01/19 06:51:32;;;;;;;24.60;9.00;;;;;;;0.15;59.54;100919.09;5034368;28;20505;-83
2022/01/19 06:53:58;;;;;;;11.97;5.03;;;;;;;-1.31;60.28;100663.50;5016533;28;20188;-83
2022/01/19 06:56:24;;;;;;;28.13;10.33;;;;;;;-2.16;59.42;100470.44;5026925;28;20609;-83
2022/01/19 06:58:49;;;;;;;17.07;6.90;;;;;;;-0.38;58.99;100752.44;5014992;28;20210;-84
2022/01/19 07:01:15;;;;;;;11.40;5.37;;;;;;;-0.98;57.84;100611.59;5016047;28;20182;-85
2022/01/19 07:03:40;;;;;;;21.83;9.67;;;;;;;-2.11;57.83;100412.31;5002774;28;20239;-85
2022/01/19 07:06:07;;;;;;;16.70;7.30;;;;;;;0.05;57.50;100742.97;5013601;28;20643;-85
2022/01/19 07:08:33;;;;;;;9.43;5.18;;;;;;;0.98;56.83;100911.53;5013118;28;20344;-84
2022/01/19 07:10:58;;;;;;;15.83;4.27;;;;;;;0.47;56.95;100783.94;5015155;28;20764;-84
2022/01/19 07:13:24;;;;;;;8.27;4.70;;;;;;;1.03;57.16;100899.53;5013647;28;20182;-85
2022/01/19 07:15:50;;;;;;;13.77;6.97;;;;;;;1.32;56.63;100912.53;5013665;28;20957;-84
2022/01/19 07:18:15;;;;;;;9.50;5.00;;;;;;;0.32;56.73;100722.56;5013452;28;20238;-85
2022/01/19 07:20:41;;;;;;;18.40;6.97;;;;;;;1.22;56.10;100837.47;5013795;28;20183;-85
2022/01/19 07:23:06;;;;;;;12.67;6.50;;;;;;;-0.55;55.81;100508.56;5013978;28;20559;-84
2022/01/19 07:25:31;;;;;;;10.37;4.90;;;;;;;0.62;56.04;100719.88;5013943;28;20594;-84
2022/01/19 07:27:57;;;;;;;7.93;3.93;;;;;;;1.72;56.36;100919.28;5019729;28;20175;-83
2022/01/19 07:30:24;;;;;;;17.70;7.87;;;;;;;-1.12;56.73;100427.88;5019209;28;20186;-84
2022/01/19 07:32:51;;;;;;;13.10;6.93;;;;;;;1.05;56.25;100769.31;5016328;28;20202;-85
2022/01/19 07:35:17;;;;;;;15.77;8.40;;;;;;;1.98;56.31;100916.06;5013911;28;20495;-84
2022/01/19 07:37:43;;;;;;;13.00;6.03;;;;;;;-1.30;56.12;100342.41;5014243;28;20449;-83
2022/01/19 07:40:09;;;;;;;21.53;9.63;;;;;;;-1.27;55.93;100310.44;5012866;28;20441;-84
2022/01/19 07:42:35;;;;;;;89.97;38.43;;;;;;;2.01;54.51;100837.31;5013035;28;20217;-85
2022/01/19 07:45:00;;;;;;;16.67;8.23;;;;;;;2.29;55.34;100934.25;5013261;28;20449;-84
2022/01/19 07:47:29;;;;;;;26.60;11.80;;;;;;;1.97;54.62;100860.22;5013193;28;20240;-85
2022/01/19 07:49:57;;;;;;;22.53;11.40;;;;;;;-0.23;54.01;100474.56;5012789;28;20182;-84
2022/01/19 07:52:23;;;;;;;18.03;8.83;;;;;;;2.54;53.87;100934.19;5013175;28;20882;-83
2022/01/19 07:54:50;;;;;;;20.37;9.23;;;;;;;1.95;52.84;100765.91;5012994;28;20453;-84
2022/01/19 07:57:16;;;;;;;22.97;11.57;;;;;;;1.78;52.84;100726.81;5026642;28;20432;-85
2022/01/19 07:59:41;;;;;;;12.17;5.17;;;;;;;2.69;52.17;100919.09;5031945;28;20621;-84
2022/01/19 08:02:07;;;;;;;16.60;7.67;;;;;;;2.87;52.28;100928.41;5023504;28;20188;-84
2022/01/19 08:04:32;;;;;;;24.73;10.60;;;;;;;1.46;51.42;100655.34;5033547;28;20182;-85
2022/01/19 08:06:58;;;;;;;25.93;13.20;;;;;;;2.32;52.17;100813.75;5032572;28;20182;-84
2022/01/19 08:09:25;;;;;;;20.13;7.10;;;;;;;2.59;51.96;100851.44;5033200;28;20181;-85
2022/01/19 08:11:51;;;;;;;12.57;6.03;;;;;;;3.22;50.30;100923.44;5032503;28;20189;-83
2022/01/19 08:14:17;;;;;;;21.93;9.07;;;;;;;1.73;51.03;100668.91;5033717;28;20473;-85
2022/01/19 08:16:42;;;;;;;16.30;7.17;;;;;;;-0.04;51.17;100358.75;5033497;28;20998;-85
2022/01/19 08:19:08;;;;;;;13.07;6.77;;;;;;;0.90;50.69;100523.47;5016172;28;20213;-85
2022/01/19 08:21:33;;;;;;;16.87;6.47;;;;;;;2.39;50.76;100776.13;5032535;28;20182;-84
2022/01/19 08:23:59;;;;;;;22.00;9.73;;;;;;;3.48;50.50;100914.31;5014368;28;20181;-85
2022/01/19 08:26:24;;;;;;;20.27;8.13;;;;;;;3.38;50.63;100917.53;5021465;28;20285;-85
2022/01/19 08:28:50;;;;;;;18.00;8.17;;;;;;;1.86;50.74;100635.19;5012275;28;20735;-85
2022/01/19 08:31:15;;;;;;;10.27;4.83;;;;;;;2.38;50.70;100696.91;5020482;28;20580;-84
2022/01/19 08:33:40;;;;;;;14.13;6.90;;;;;;;2.71;50.47;100744.25;5030682;28;20182;-84
2022/01/19 08:36:06;;;;;;;18.33;6.93;;;;;;;2.25;50.28;100664.00;5031512;28;20186;-84
2022/01/19 08:38:33;;;;;;;30.67;12.37;;;;;;;3.91;49.73;100869.13;5016725;28;20843;-85
2022/01/19 08:40:58;;;;;;;15.80;6.27;;;;;;;1.72;48.84;100491.56;5030933;28;20178;-85
2022/01/19 08:43:23;;;;;;;16.27;6.23;;;;;;;3.85;48.96;100859.44;5031272;28;20490;-85
2022/01/19 08:45:50;;;;;;;17.53;8.00;;;;;;;2.60;49.52;100634.84;5031578;28;20242;-85
2022/01/19 08:48:18;;;;;;;14.63;6.57;;;;;;;4.07;49.77;100863.19;5021952;28;20186;-85
2022/01/19 08:50:43;;;;;;;11.90;6.10;;;;;;;2.11;50.27;100530.31;4993216;28;20433;-85
2022/01/19 08:53:09;;;;;;;12.03;5.00;;;;;;;3.19;49.51;100702.94;5010920;28;20537;-84
2022/01/19 08:55:35;;;;;;;14.67;5.83;;;;;;;4.65;49.01;100889.44;5011720;28;20708;-84
2022/01/19 08:58:00;;;;;;;9.53;4.80;;;;;;;3.54;48.82;100745.53;5024162;28;20202;-85
2022/01/19 09:00:26;;;;;;;7.37;3.73;;;;;;;2.98;49.14;100612.69;5016888;28;20180;-84
2022/01/19 09:02:52;;;;;;;18.13;8.00;;;;;;;3.54;48.93;100630.38;5006340;28;20242;-85
2022/01/19 09:05:17;;;;;;;10.97;5.20;;;;;;;4.52;48.48;100821.38;5014774;28;20178;-85
2022/01/19 09:07:43;;;;;;;11.37;5.00;;;;;;;3.64;48.12;100666.25;5014010;28;20182;-84
2022/01/19 09:10:10;;;;;;;9.40;4.53;;;;;;;5.14;47.37;100864.56;5013010;28;20209;-86
2022/01/19 09:12:37;;;;;;;17.97;8.10;;;;;;;5.07;46.59;100842.19;5029696;28;20188;-85
2022/01/19 09:15:05;;;;;;;8.30;3.93;;;;;;;5.01;45.09;100876.78;5011934;28;21090;-85
2022/01/19 09:17:30;;;;;;;8.47;4.63;;;;;;;3.90;45.66;100697.06;5028622;28;20439;-85
2022/01/19 09:19:56;;;;;;;9.93;4.50;;;;;;;4.43;46.44;100792.94;5008027;28;20438;-84
2022/01/19 09:22:21;;;;;;;10.83;4.90;;;;;;;3.95;47.18;100740.94;5019798;28;20217;-84
2022/01/19 09:24:47;;;;;;;10.37;4.53;;;;;;;3.69;46.69;100638.38;5018717;28;20202;-85
2022/01/19 09:27:15;;;;;;;9.33;3.77;;;;;;;3.39;47.02;100623.09;5011185;28;20264;-85
2022/01/19 09:29:43;;;;;;;10.03;5.80;;;;;;;3.70;46.61;100634.25;5011787;28;20268;-85
2022/01/19 09:32:13;;;;;;;6.97;4.20;;;;;;;3.70;45.95;100654.28;5011372;28;20441;-85
2022/01/19 09:34:47;;;;;;;8.73;4.40;;;;;;;4.75;46.13;100861.91;5011484;28;20446;-84
2022/01/19 09:37:13;;;;;;;10.33;4.67;;;;;;;3.14;46.53;100584.06;5011812;28;20439;-85
2022/01/19 09:39:38;;;;;;;8.97;4.00;;;;;;;3.74;46.81;100679.75;5011702;28;20899;-85
2022/01/19 09:42:04;;;;;;;10.70;5.57;;;;;;;3.77;46.53;100624.91;5011682;28;20629;-84
2022/01/19 09:44:30;;;;;;;11.07;5.90;;;;;;;4.27;46.03;100721.25;5011922;28;20653;-84
2022/01/19 09:46:55;;;;;;;7.77;3.50;;;;;;;3.44;46.54;100571.81;5012160;28;20185;-83
2022/01/19 09:49:21;;;;;;;7.87;3.60;;;;;;;4.21;45.92;100655.53;5011607;28;20186;-83
2022/01/19 09:51:49;;;;;;;7.87;4.27;;;;;;;4.20;45.44;100643.78;5011620;28;20182;-84
2022/01/19 09:54:20;;;;;;;11.43;5.27;;;;;;;5.47;45.42;100835.59;5011557;28;20194;-83
2022/01/19 09:56:47;;;;;;;18.33;8.17;;;;;;;5.70;44.73;100830.94;5020841;28;20447;-84
2022/01/19 09:59:14;;;;;;;14.20;5.63;;;;;;;2.62;43.69;100265.94;5030268;28;20468;-84
2022/01/19 10:02:03;;;;;;;14.87;6.77;;;;;;;5.33;43.34;100731.47;5013268;28;20441;-83
2022/01/19 10:04:31;;;;;;;14.33;5.13;;;;;;;3.90;45.06;100575.16;5030547;28;20555;-84
2022/01/19 10:07:19;;;;;;;10.73;5.23;;;;;;;5.50;44.41;100828.34;5030303;28;20522;-83
2022/01/19 10:09:58;;;;;;;9.13;4.23;;;;;;;5.42;44.16;100817.63;5013502;28;20435;-83
2022/01/19 10:18:13;;;;;;;34.43;11.63;;;;;;;5.50;43.60;100810.75;5030946;28;21120;-83
2022/01/19 10:20:40;;;;;;;56.03;22.73;;;;;;;4.66;43.69;100569.28;5033022;28;20437;-84
2022/01/19 10:23:33;;;;;;;24.67;10.47;;;;;;;6.18;43.03;100811.63;5017711;28;20438;-85
2022/01/19 10:25:59;;;;;;;13.90;6.70;;;;;;;4.76;43.93;100632.03;4997559;28;20444;-83
2022/01/19 10:28:25;;;;;;;19.83;9.23;;;;;;;5.51;43.45;100777.38;5014425;28;20587;-84
2022/01/19 10:30:52;;;;;;;14.47;6.77;;;;;;;4.15;42.93;100575.69;4997478;28;20808;-84
2022/01/19 10:33:18;;;;;;;12.77;6.70;;;;;;;5.74;42.66;100796.13;5029291;28;20437;-82
2022/01/19 10:35:47;;;;;;;15.97;8.03;;;;;;;5.19;42.91;100614.81;5016253;28;20436;-83
2022/01/19 10:38:15;;;;;;;21.90;12.07;;;;;;;6.42;42.80;100789.38;5033837;28;20476;-83
2022/01/19 10:40:44;;;;;;;24.13;14.27;;;;;;;7.25;41.28;100761.63;5034769;28;20440;-82
2022/01/19 10:43:46;;;;;;;22.63;12.57;;;;;;;7.07;41.07;100778.69;5015655;28;20546;-83
2022/01/19 10:46:31;;;;;;;8.17;4.13;;;;;;;6.20;40.99;100790.88;5016240;28;20480;-83
2022/01/19 10:49:07;;;;;;;10.60;5.30;;;;;;;6.04;42.18;100782.81;5034563;28;20435;-83
2022/01/19 10:51:43;;;;;;;9.63;5.37;;;;;;;5.88;42.09;100760.53;5038482;28;20474;-82
2022/01/19 10:54:15;;;;;;;10.40;4.83;;;;;;;5.60;42.40;100688.63;5036672;28;20475;-82
2022/01/19 10:56:43;;;;;;;11.10;6.77;;;;;;;6.26;42.03;100741.06;5009422;28;20464;-83
2022/01/19 10:59:15;;;;;;;15.03;7.20;;;;;;;6.66;41.03;100742.66;5016626;28;20469;-83
2022/01/19 11:01:46;;;;;;;12.87;6.00;;;;;;;6.61;41.83;100733.00;5016753;28;20961;-84
2022/01/19 11:04:31;;;;;;;13.43;6.47;;;;;;;6.11;41.78;100651.84;4987549;28;20461;-83
2022/01/19 11:06:58;;;;;;;11.73;4.67;;;;;;;6.20;41.82;100727.13;5013367;28;20426;-84
2022/01/19 11:09:27;;;;;;;12.63;5.30;;;;;;;4.95;41.10;100497.34;5013951;28;20429;-82
2022/01/19 11:11:57;;;;;;;16.80;8.03;;;;;;;6.74;40.64;100716.47;4996006;28;20437;-83
2022/01/19 11:14:25;;;;;;;28.20;11.87;;;;;;;6.61;39.67;100628.19;5013186;28;20469;-83
2022/01/19 11:16:51;;;;;;;18.50;8.77;;;;;;;6.99;39.25;100702.56;5013151;28;20475;-82
2022/01/19 11:19:18;;;;;;;9.73;4.47;;;;;;;6.54;39.73;100692.22;5013653;28;20461;-85
2022/01/19 11:21:51;;;;;;;15.47;7.40;;;;;;;6.61;41.04;100708.72;5012082;28;20448;-83
2022/01/19 11:24:29;;;;;;;12.77;5.73;;;;;;;6.36;40.97;100675.69;5012796;28;20875;-84
2022/01/19 11:26:56;;;;;;;12.63;6.27;;;;;;;6.63;40.77;100697.13;5013008;28;20541;-84
2022/01/19 11:29:23;;;;;;;29.43;14.40;;;;;;;6.84;39.59;100645.09;5012700;28;20480;-83
2022/01/19 11:31:53;;;;;;;27.97;12.80;;;;;;;7.40;39.14;100687.22;5013289;28;20453;-82
2022/01/19 11:34:38;;;;;;;22.63;11.80;;;;;;;7.22;39.84;100684.19;5013077;28;21073;-83
2022/01/19 11:37:04;;;;;;;31.93;14.30;;;;;;;6.74;38.97;100552.03;5013163;28;20469;-83
2022/01/19 11:39:30;;;;;;;18.13;7.67;;;;;;;7.33;38.52;100687.53;5012127;28;20505;-84
2022/01/19 11:41:58;;;;;;;15.13;7.43;;;;;;;6.44;39.83;100589.16;5013155;28;20186;-84
2022/01/19 11:44:33;;;;;;;68.00;30.20;;;;;;;7.50;39.63;100680.47;5013438;28;20440;-83
2022/01/19 11:47:28;;;;;;;73.60;38.63;;;;;;;7.40;39.19;100659.53;5013345;28;20967;-84
2022/01/19 11:49:53;;;;;;;28.00;15.30;;;;;;;7.73;38.69;100668.00;4952387;29;20521;-82
2022/01/19 11:52:24;;;;;;;8.13;4.57;;;;;;;5.86;37.89;100462.13;4953435;29;20910;-83
2022/01/19 11:54:51;;;;;;;11.40;5.30;;;;;;;6.63;39.61;100651.84;4957316;29;20271;-82
2022/01/19 11:57:35;;;;;;;10.20;5.23;;;;;;;5.64;39.68;100481.25;4954958;29;20436;-83
2022/01/19 12:00:06;;;;;;;26.33;12.77;;;;;;;7.08;39.08;100654.56;4958277;29;20495;-83
2022/01/19 12:02:38;;;;;;;45.73;20.50;;;;;;;7.00;38.77;100572.53;4946484;29;20456;-82
2022/01/19 12:05:09;;;;;;;46.07;21.50;;;;;;;7.52;39.47;100643.72;4956129;28;20434;-83
2022/01/19 12:07:48;;;;;;;40.00;17.67;;;;;;;5.86;38.69;100372.56;4951554;29;20976;-83
2022/01/19 12:10:21;;;;;;;28.40;12.97;;;;;;;6.80;38.44;100515.63;4935467;29;20539;-83
2022/01/19 12:16:16;;;;;;;25.50;13.20;;;;;;;7.06;38.78;100625.84;4951409;28;21406;-82
2022/01/19 12:18:41;;;;;;;52.40;22.60;;;;;;;7.33;38.93;100627.09;4952247;29;21017;-83
2022/01/19 12:21:15;;;;;;;144.50;58.50;;;;;;;5.36;38.48;100289.84;4952523;29;20531;-83
2022/01/19 12:23:43;;;;;;;88.33;36.37;;;;;;;7.62;38.27;100617.53;4951962;29;20188;-83
2022/01/19 12:26:10;;;;;;;63.00;27.50;;;;;;;7.44;38.03;100591.00;4964366;28;20442;-83
2022/01/19 12:28:49;;;;;;;27.13;13.43;;;;;;;7.28;38.45;100605.72;5011843;28;20232;-81
2022/01/19 12:31:37;;;;;;;53.47;22.83;;;;;;;7.57;38.52;100603.72;5012041;28;20434;-84
2022/01/19 12:34:02;;;;;;;35.33;17.47;;;;;;;7.30;38.95;100587.44;4995064;28;20448;-82
2022/01/19 12:36:57;;;;;;;27.23;12.77;;;;;;;7.61;38.09;100590.56;5005224;28;20444;-83
2022/01/19 12:39:26;;;;;;;22.70;11.47;;;;;;;7.38;38.80;100585.47;5032513;28;20241;-82
2022/01/19 12:41:56;;;;;;;19.00;8.60;;;;;;;6.74;38.07;100474.00;5015023;28;20281;-82
2022/01/19 12:44:46;;;;;;;13.57;7.87;;;;;;;6.98;38.34;100533.75;5032435;28;20183;-83
2022/01/19 12:47:41;;;;;;;65.97;23.97;;;;;;;7.57;38.37;100579.41;5031144;28;20596;-83